sensor_id;sensor_type;location;lat;lon;timestamp;P1;durP1;ratioP1;P2;durP2;ratioP2
75435;SDS011;64014;53.432;14.534;2023-02-08T00:01:42;31.27;;;16.13;;
75435;SDS011;64014;53.432;14.534;2023-02-08T00:04:09;33.85;;;16.92;;
75435;SDS011;64014;53.432;14.534;2023-02-08T00:06:35;31.55;;;16.27;;
75435;SDS011;64014;53.432;14.534;2023-02-08T00:09:01;32.63;;;16.00;;
75435;SDS011;64014;53.432;14.534;2023-02-08T00:11:28;34.20;;;16.23;;
75435;SDS011;64014;53.432;14.534;2023-02-08T00:13:54;30.58;;;15.63;;
75435;SDS011;64014;53.432;14.534;2023-02-08T00:16:20;33.63;;;17.80;;
75435;SDS011;64014;53.432;14.534;2023-02-08T00:18:46;41.35;;;20.77;;
75435;SDS011;64014;53.432;14.534;2023-02-08T00:21:14;42.08;;;20.75;;
75435;SDS011;64014;53.432;14.534;2023-02-08T00:23:41;35.10;;;16.83;;
75435;SDS011;64014;53.432;14.534;2023-02-08T00:26:07;32.45;;;15.70;;
75435;SDS011;64014;53.432;14.534;2023-02-08T00:28:33;36.90;;;18.02;;
75435;SDS011;64014;53.432;14.534;2023-02-08T00:31:00;37.15;;;16.20;;
75435;SDS011;64014;53.432;14.534;2023-02-08T00:33:26;31.85;;;15.73;;
75435;SDS011;64014;53.432;14.534;2023-02-08T00:35:59;34.13;;;17.42;;
75435;SDS011;64014;53.432;14.534;2023-02-08T00:38:26;31.20;;;16.98;;
75435;SDS011;64014;53.432;14.534;2023-02-08T00:40:52;34.53;;;17.23;;
75435;SDS011;64014;53.432;14.534;2023-02-08T00:43:18;32.22;;;17.40;;
75435;SDS011;64014;53.432;14.534;2023-02-08T00:45:45;37.17;;;17.92;;
75435;SDS011;64014;53.432;14.534;2023-02-08T00:48:11;40.10;;;18.15;;
75435;SDS011;64014;53.432;14.534;2023-02-08T00:50:37;36.80;;;16.17;;
75435;SDS011;64014;53.432;14.534;2023-02-08T00:53:03;32.60;;;17.65;;
75435;SDS011;64014;53.432;14.534;2023-02-08T00:55:29;38.55;;;17.25;;
75435;SDS011;64014;53.432;14.534;2023-02-08T00:57:56;39.63;;;19.50;;
75435;SDS011;64014;53.432;14.534;2023-02-08T01:00:22;34.42;;;18.23;;
75435;SDS011;64014;53.432;14.534;2023-02-08T01:02:48;34.83;;;16.20;;
75435;SDS011;64014;53.432;14.534;2023-02-08T01:05:14;36.53;;;15.20;;
75435;SDS011;64014;53.432;14.534;2023-02-08T01:07:40;30.85;;;16.70;;
75435;SDS011;64014;53.432;14.534;2023-02-08T01:10:07;34.85;;;17.58;;
75435;SDS011;64014;53.432;14.534;2023-02-08T01:12:36;35.25;;;18.42;;
75435;SDS011;64014;53.432;14.534;2023-02-08T01:15:03;36.10;;;16.90;;
75435;SDS011;64014;53.432;14.534;2023-02-08T01:17:30;37.35;;;16.38;;
75435;SDS011;64014;53.432;14.534;2023-02-08T01:19:56;35.20;;;17.85;;
75435;SDS011;64014;53.432;14.534;2023-02-08T01:22:22;38.90;;;19.15;;
75435;SDS011;64014;53.432;14.534;2023-02-08T01:24:48;37.65;;;16.13;;
75435;SDS011;64014;53.432;14.534;2023-02-08T01:27:14;34.28;;;16.85;;
75435;SDS011;64014;53.432;14.534;2023-02-08T01:29:40;37.58;;;17.08;;
75435;SDS011;64014;53.432;14.534;2023-02-08T01:32:07;35.50;;;17.38;;
75435;SDS011;64014;53.432;14.534;2023-02-08T01:34:33;34.20;;;19.38;;
75435;SDS011;64014;53.432;14.534;2023-02-08T01:36:59;39.65;;;19.77;;
75435;SDS011;64014;53.432;14.534;2023-02-08T01:39:25;37.03;;;18.85;;
75435;SDS011;64014;53.432;14.534;2023-02-08T01:41:51;36.78;;;19.10;;
75435;SDS011;64014;53.432;14.534;2023-02-08T01:46:48;39.30;;;19.63;;
75435;SDS011;64014;53.432;14.534;2023-02-08T01:49:20;37.45;;;19.67;;
75435;SDS011;64014;53.432;14.534;2023-02-08T01:52:06;36.58;;;19.58;;
75435;SDS011;64014;53.432;14.534;2023-02-08T01:56:59;37.83;;;18.90;;
75435;SDS011;64014;53.432;14.534;2023-02-08T01:59:37;38.88;;;18.08;;
75435;SDS011;64014;53.432;14.534;2023-02-08T02:02:04;39.90;;;19.40;;
75435;SDS011;64014;53.432;14.534;2023-02-08T02:04:32;41.25;;;20.90;;
75435;SDS011;64014;53.432;14.534;2023-02-08T02:07:00;40.95;;;17.83;;
75435;SDS011;64014;53.432;14.534;2023-02-08T02:09:31;48.35;;;22.48;;
75435;SDS011;64014;53.432;14.534;2023-02-08T02:11:58;45.15;;;21.38;;
75435;SDS011;64014;53.432;14.534;2023-02-08T02:14:24;41.88;;;20.75;;
75435;SDS011;64014;53.432;14.534;2023-02-08T02:16:51;43.30;;;19.98;;
75435;SDS011;64014;53.432;14.534;2023-02-08T02:19:30;50.67;;;22.52;;
75435;SDS011;64014;53.432;14.534;2023-02-08T02:34:55;51.55;;;24.83;;
75435;SDS011;64014;53.432;14.534;2023-02-08T02:37:39;47.72;;;22.52;;
75435;SDS011;64014;53.432;14.534;2023-02-08T02:40:15;49.70;;;23.98;;
75435;SDS011;64014;53.432;14.534;2023-02-08T02:50:44;48.80;;;23.10;;
75435;SDS011;64014;53.432;14.534;2023-02-08T02:55:59;48.90;;;23.42;;
75435;SDS011;64014;53.432;14.534;2023-02-08T02:58:28;48.00;;;21.23;;
75435;SDS011;64014;53.432;14.534;2023-02-08T03:00:56;50.30;;;22.77;;
75435;SDS011;64014;53.432;14.534;2023-02-08T03:03:24;47.50;;;22.65;;
75435;SDS011;64014;53.432;14.534;2023-02-08T03:05:51;44.70;;;21.60;;
75435;SDS011;64014;53.432;14.534;2023-02-08T03:08:25;44.67;;;20.88;;
75435;SDS011;64014;53.432;14.534;2023-02-08T03:14:02;48.70;;;24.75;;
75435;SDS011;64014;53.432;14.534;2023-02-08T03:19:09;46.25;;;21.50;;
75435;SDS011;64014;53.432;14.534;2023-02-08T03:21:45;50.67;;;21.98;;
75435;SDS011;64014;53.432;14.534;2023-02-08T03:26:51;48.13;;;22.50;;
75435;SDS011;64014;53.432;14.534;2023-02-08T03:31:55;42.85;;;21.42;;
75435;SDS011;64014;53.432;14.534;2023-02-08T03:34:27;44.65;;;21.90;;
75435;SDS011;64014;53.432;14.534;2023-02-08T03:37:00;47.28;;;23.60;;
75435;SDS011;64014;53.432;14.534;2023-02-08T03:39:28;42.22;;;20.70;;
75435;SDS011;64014;53.432;14.534;2023-02-08T03:41:56;45.22;;;21.70;;
75435;SDS011;64014;53.432;14.534;2023-02-08T03:44:25;43.55;;;21.60;;
75435;SDS011;64014;53.432;14.534;2023-02-08T03:46:54;45.08;;;20.48;;
75435;SDS011;64014;53.432;14.534;2023-02-08T03:49:22;43.47;;;21.20;;
75435;SDS011;64014;53.432;14.534;2023-02-08T03:51:50;46.13;;;22.88;;
75435;SDS011;64014;53.432;14.534;2023-02-08T03:54:21;44.25;;;21.25;;
75435;SDS011;64014;53.432;14.534;2023-02-08T03:59:23;43.10;;;20.60;;
75435;SDS011;64014;53.432;14.534;2023-02-08T04:01:52;44.88;;;21.98;;
75435;SDS011;64014;53.432;14.534;2023-02-08T04:04:18;44.53;;;21.88;;
75435;SDS011;64014;53.432;14.534;2023-02-08T04:06:45;44.00;;;22.30;;
75435;SDS011;64014;53.432;14.534;2023-02-08T04:09:11;48.38;;;22.63;;
75435;SDS011;64014;53.432;14.534;2023-02-08T04:11:37;43.65;;;22.92;;
75435;SDS011;64014;53.432;14.534;2023-02-08T04:14:04;41.85;;;21.55;;
75435;SDS011;64014;53.432;14.534;2023-02-08T04:16:30;44.58;;;18.70;;
75435;SDS011;64014;53.432;14.534;2023-02-08T04:18:56;49.08;;;22.60;;
75435;SDS011;64014;53.432;14.534;2023-02-08T04:21:22;41.85;;;19.67;;
75435;SDS011;64014;53.432;14.534;2023-02-08T04:23:48;46.53;;;21.60;;
75435;SDS011;64014;53.432;14.534;2023-02-08T04:26:14;42.45;;;19.30;;
75435;SDS011;64014;53.432;14.534;2023-02-08T04:28:40;41.90;;;20.42;;
75435;SDS011;64014;53.432;14.534;2023-02-08T04:31:07;48.08;;;23.58;;
75435;SDS011;64014;53.432;14.534;2023-02-08T04:33:33;41.95;;;20.77;;
75435;SDS011;64014;53.432;14.534;2023-02-08T04:35:59;41.88;;;20.00;;
75435;SDS011;64014;53.432;14.534;2023-02-08T04:38:25;48.28;;;21.15;;
75435;SDS011;64014;53.432;14.534;2023-02-08T04:40:51;42.08;;;19.42;;
75435;SDS011;64014;53.432;14.534;2023-02-08T04:43:17;45.25;;;20.73;;
75435;SDS011;64014;53.432;14.534;2023-02-08T04:45:43;45.15;;;20.75;;
75435;SDS011;64014;53.432;14.534;2023-02-08T04:48:10;45.45;;;22.33;;
75435;SDS011;64014;53.432;14.534;2023-02-08T04:50:36;43.10;;;21.73;;
75435;SDS011;64014;53.432;14.534;2023-02-08T04:53:02;43.47;;;21.02;;
75435;SDS011;64014;53.432;14.534;2023-02-08T04:55:28;41.03;;;19.75;;
75435;SDS011;64014;53.432;14.534;2023-02-08T04:57:54;41.42;;;18.83;;
75435;SDS011;64014;53.432;14.534;2023-02-08T05:00:21;43.30;;;20.02;;
75435;SDS011;64014;53.432;14.534;2023-02-08T05:02:47;41.28;;;18.98;;
75435;SDS011;64014;53.432;14.534;2023-02-08T05:05:13;42.03;;;19.75;;
75435;SDS011;64014;53.432;14.534;2023-02-08T05:07:39;40.80;;;19.02;;
75435;SDS011;64014;53.432;14.534;2023-02-08T05:10:05;43.25;;;20.15;;
75435;SDS011;64014;53.432;14.534;2023-02-08T05:12:31;58.85;;;27.70;;
75435;SDS011;64014;53.432;14.534;2023-02-08T05:14:58;49.13;;;25.20;;
75435;SDS011;64014;53.432;14.534;2023-02-08T05:17:24;46.92;;;22.40;;
75435;SDS011;64014;53.432;14.534;2023-02-08T05:19:50;41.85;;;22.02;;
75435;SDS011;64014;53.432;14.534;2023-02-08T05:22:16;44.08;;;20.65;;
75435;SDS011;64014;53.432;14.534;2023-02-08T05:24:42;44.28;;;21.05;;
75435;SDS011;64014;53.432;14.534;2023-02-08T05:27:08;44.45;;;20.23;;
75435;SDS011;64014;53.432;14.534;2023-02-08T05:29:34;41.17;;;18.95;;
75435;SDS011;64014;53.432;14.534;2023-02-08T05:32:00;43.35;;;19.65;;
75435;SDS011;64014;53.432;14.534;2023-02-08T05:34:27;45.53;;;24.13;;
75435;SDS011;64014;53.432;14.534;2023-02-08T05:36:53;45.47;;;21.90;;
75435;SDS011;64014;53.432;14.534;2023-02-08T05:39:19;43.05;;;20.17;;
75435;SDS011;64014;53.432;14.534;2023-02-08T05:41:45;41.15;;;20.08;;
75435;SDS011;64014;53.432;14.534;2023-02-08T05:44:11;44.92;;;20.85;;
75435;SDS011;64014;53.432;14.534;2023-02-08T05:46:37;46.08;;;21.88;;
75435;SDS011;64014;53.432;14.534;2023-02-08T05:49:04;49.67;;;22.95;;
75435;SDS011;64014;53.432;14.534;2023-02-08T05:51:30;50.85;;;22.13;;
75435;SDS011;64014;53.432;14.534;2023-02-08T05:53:56;50.03;;;21.85;;
75435;SDS011;64014;53.432;14.534;2023-02-08T05:56:22;47.47;;;20.52;;
75435;SDS011;64014;53.432;14.534;2023-02-08T05:58:48;46.00;;;22.55;;
75435;SDS011;64014;53.432;14.534;2023-02-08T06:01:14;48.15;;;21.92;;
75435;SDS011;64014;53.432;14.534;2023-02-08T06:03:41;44.88;;;20.02;;
75435;SDS011;64014;53.432;14.534;2023-02-08T06:06:07;48.10;;;21.38;;
75435;SDS011;64014;53.432;14.534;2023-02-08T06:08:37;44.30;;;22.92;;
75435;SDS011;64014;53.432;14.534;2023-02-08T06:11:03;45.92;;;21.35;;
75435;SDS011;64014;53.432;14.534;2023-02-08T06:13:29;46.10;;;21.63;;
75435;SDS011;64014;53.432;14.534;2023-02-08T06:15:55;46.70;;;22.15;;
75435;SDS011;64014;53.432;14.534;2023-02-08T06:18:22;47.40;;;21.85;;
75435;SDS011;64014;53.432;14.534;2023-02-08T06:20:51;48.55;;;22.85;;
75435;SDS011;64014;53.432;14.534;2023-02-08T06:23:18;51.08;;;25.73;;
75435;SDS011;64014;53.432;14.534;2023-02-08T06:25:44;47.67;;;22.75;;
75435;SDS011;64014;53.432;14.534;2023-02-08T06:28:10;46.97;;;22.25;;
75435;SDS011;64014;53.432;14.534;2023-02-08T06:30:37;46.88;;;20.98;;
75435;SDS011;64014;53.432;14.534;2023-02-08T06:33:03;43.67;;;20.13;;
75435;SDS011;64014;53.432;14.534;2023-02-08T06:35:30;46.30;;;22.13;;
75435;SDS011;64014;53.432;14.534;2023-02-08T06:37:56;45.22;;;21.73;;
75435;SDS011;64014;53.432;14.534;2023-02-08T06:40:23;51.22;;;21.52;;
75435;SDS011;64014;53.432;14.534;2023-02-08T06:42:49;50.85;;;23.80;;
75435;SDS011;64014;53.432;14.534;2023-02-08T06:45:16;50.88;;;22.10;;
75435;SDS011;64014;53.432;14.534;2023-02-08T06:47:42;49.78;;;21.88;;
75435;SDS011;64014;53.432;14.534;2023-02-08T06:50:08;50.50;;;22.27;;
75435;SDS011;64014;53.432;14.534;2023-02-08T06:52:35;46.42;;;20.95;;
75435;SDS011;64014;53.432;14.534;2023-02-08T06:55:01;46.13;;;23.02;;
75435;SDS011;64014;53.432;14.534;2023-02-08T06:57:27;42.10;;;21.88;;
75435;SDS011;64014;53.432;14.534;2023-02-08T06:59:53;46.03;;;21.77;;
75435;SDS011;64014;53.432;14.534;2023-02-08T07:02:19;44.88;;;21.00;;
75435;SDS011;64014;53.432;14.534;2023-02-08T07:04:46;48.42;;;22.15;;
75435;SDS011;64014;53.432;14.534;2023-02-08T07:07:13;46.78;;;23.58;;
75435;SDS011;64014;53.432;14.534;2023-02-08T07:09:39;47.95;;;22.17;;
75435;SDS011;64014;53.432;14.534;2023-02-08T07:12:05;45.63;;;22.67;;
75435;SDS011;64014;53.432;14.534;2023-02-08T07:14:35;48.95;;;25.98;;
75435;SDS011;64014;53.432;14.534;2023-02-08T07:17:02;50.22;;;26.30;;
75435;SDS011;64014;53.432;14.534;2023-02-08T07:19:28;52.10;;;24.13;;
75435;SDS011;64014;53.432;14.534;2023-02-08T07:21:54;49.67;;;24.15;;
75435;SDS011;64014;53.432;14.534;2023-02-08T07:24:21;53.65;;;26.08;;
75435;SDS011;64014;53.432;14.534;2023-02-08T07:26:47;49.28;;;25.13;;
75435;SDS011;64014;53.432;14.534;2023-02-08T07:29:13;52.55;;;26.90;;
75435;SDS011;64014;53.432;14.534;2023-02-08T07:31:39;49.25;;;24.20;;
75435;SDS011;64014;53.432;14.534;2023-02-08T07:34:06;48.50;;;23.83;;
75435;SDS011;64014;53.432;14.534;2023-02-08T07:36:32;51.67;;;23.80;;
75435;SDS011;64014;53.432;14.534;2023-02-08T07:38:59;53.63;;;25.95;;
75435;SDS011;64014;53.432;14.534;2023-02-08T07:41:26;48.22;;;23.55;;
75435;SDS011;64014;53.432;14.534;2023-02-08T07:43:52;56.85;;;28.92;;
75435;SDS011;64014;53.432;14.534;2023-02-08T07:46:20;44.28;;;21.95;;
75435;SDS011;64014;53.432;14.534;2023-02-08T07:48:46;55.60;;;23.33;;
75435;SDS011;64014;53.432;14.534;2023-02-08T07:51:16;45.80;;;23.20;;
75435;SDS011;64014;53.432;14.534;2023-02-08T07:53:43;42.72;;;23.63;;
75435;SDS011;64014;53.432;14.534;2023-02-08T07:56:09;48.72;;;25.02;;
75435;SDS011;64014;53.432;14.534;2023-02-08T07:58:35;50.90;;;25.25;;
75435;SDS011;64014;53.432;14.534;2023-02-08T08:01:01;52.22;;;25.75;;
75435;SDS011;64014;53.432;14.534;2023-02-08T08:03:27;51.63;;;24.13;;
75435;SDS011;64014;53.432;14.534;2023-02-08T08:05:54;50.30;;;25.58;;
75435;SDS011;64014;53.432;14.534;2023-02-08T08:08:20;49.10;;;21.85;;
75435;SDS011;64014;53.432;14.534;2023-02-08T08:10:46;52.15;;;24.48;;
75435;SDS011;64014;53.432;14.534;2023-02-08T08:13:13;53.20;;;22.38;;
75435;SDS011;64014;53.432;14.534;2023-02-08T08:15:39;59.05;;;28.05;;
75435;SDS011;64014;53.432;14.534;2023-02-08T08:18:06;51.50;;;28.52;;
75435;SDS011;64014;53.432;14.534;2023-02-08T08:20:32;49.38;;;25.70;;
75435;SDS011;64014;53.432;14.534;2023-02-08T08:22:58;46.35;;;24.88;;
75435;SDS011;64014;53.432;14.534;2023-02-08T08:25:25;54.70;;;29.67;;
75435;SDS011;64014;53.432;14.534;2023-02-08T08:27:51;46.78;;;25.65;;
75435;SDS011;64014;53.432;14.534;2023-02-08T08:30:17;51.63;;;27.83;;
75435;SDS011;64014;53.432;14.534;2023-02-08T08:32:44;47.55;;;25.00;;
75435;SDS011;64014;53.432;14.534;2023-02-08T08:35:10;46.00;;;23.63;;
75435;SDS011;64014;53.432;14.534;2023-02-08T08:37:37;46.45;;;22.92;;
75435;SDS011;64014;53.432;14.534;2023-02-08T08:40:04;49.38;;;25.55;;
75435;SDS011;64014;53.432;14.534;2023-02-08T08:42:31;44.50;;;21.00;;
75435;SDS011;64014;53.432;14.534;2023-02-08T08:44:57;49.85;;;24.92;;
75435;SDS011;64014;53.432;14.534;2023-02-08T08:47:23;46.47;;;27.08;;
75435;SDS011;64014;53.432;14.534;2023-02-08T08:49:49;50.20;;;27.17;;
75435;SDS011;64014;53.432;14.534;2023-02-08T08:52:15;51.88;;;27.20;;
75435;SDS011;64014;53.432;14.534;2023-02-08T08:54:41;45.97;;;23.95;;
75435;SDS011;64014;53.432;14.534;2023-02-08T08:57:08;48.90;;;23.50;;
75435;SDS011;64014;53.432;14.534;2023-02-08T08:59:34;49.63;;;25.83;;
75435;SDS011;64014;53.432;14.534;2023-02-08T09:02:00;50.63;;;24.33;;
75435;SDS011;64014;53.432;14.534;2023-02-08T09:04:26;48.42;;;24.77;;
75435;SDS011;64014;53.432;14.534;2023-02-08T09:06:53;47.45;;;24.27;;
75435;SDS011;64014;53.432;14.534;2023-02-08T09:09:19;49.50;;;24.17;;
75435;SDS011;64014;53.432;14.534;2023-02-08T09:11:46;47.42;;;23.67;;
75435;SDS011;64014;53.432;14.534;2023-02-08T09:14:12;48.72;;;23.45;;
75435;SDS011;64014;53.432;14.534;2023-02-08T09:16:39;48.90;;;21.98;;
75435;SDS011;64014;53.432;14.534;2023-02-08T09:19:06;46.47;;;21.77;;
75435;SDS011;64014;53.432;14.534;2023-02-08T09:21:34;55.78;;;25.77;;
75435;SDS011;64014;53.432;14.534;2023-02-08T09:24:00;43.78;;;21.60;;
75435;SDS011;64014;53.432;14.534;2023-02-08T09:26:27;45.28;;;21.60;;
75435;SDS011;64014;53.432;14.534;2023-02-08T09:28:53;39.13;;;23.52;;
75435;SDS011;64014;53.432;14.534;2023-02-08T09:33:46;45.47;;;22.42;;
75435;SDS011;64014;53.432;14.534;2023-02-08T09:36:13;44.95;;;21.25;;
75435;SDS011;64014;53.432;14.534;2023-02-08T09:38:40;41.72;;;18.98;;
75435;SDS011;64014;53.432;14.534;2023-02-08T09:46:32;38.67;;;18.45;;
75435;SDS011;64014;53.432;14.534;2023-02-08T09:49:02;41.83;;;18.75;;
75435;SDS011;64014;53.432;14.534;2023-02-08T09:51:35;42.05;;;20.65;;
75435;SDS011;64014;53.432;14.534;2023-02-08T09:54:06;38.47;;;18.13;;
75435;SDS011;64014;53.432;14.534;2023-02-08T09:56:34;43.42;;;18.63;;
75435;SDS011;64014;53.432;14.534;2023-02-08T09:59:04;39.50;;;20.40;;
75435;SDS011;64014;53.432;14.534;2023-02-08T10:01:32;41.83;;;19.55;;
75435;SDS011;64014;53.432;14.534;2023-02-08T10:06:25;42.97;;;18.90;;
75435;SDS011;64014;53.432;14.534;2023-02-08T10:08:51;38.85;;;18.13;;
75435;SDS011;64014;53.432;14.534;2023-02-08T10:13:54;40.60;;;18.10;;
75435;SDS011;64014;53.432;14.534;2023-02-08T10:19:06;34.35;;;17.80;;
75435;SDS011;64014;53.432;14.534;2023-02-08T10:24:35;39.83;;;22.25;;
75435;SDS011;64014;53.432;14.534;2023-02-08T10:37:11;32.95;;;18.95;;
75435;SDS011;64014;53.432;14.534;2023-02-08T10:39:38;45.30;;;19.20;;
75435;SDS011;64014;53.432;14.534;2023-02-08T10:42:09;42.78;;;23.52;;
75435;SDS011;64014;53.432;14.534;2023-02-08T10:44:40;35.38;;;17.17;;
75435;SDS011;64014;53.432;14.534;2023-02-08T10:47:52;29.25;;;16.08;;
75435;SDS011;64014;53.432;14.534;2023-02-08T10:50:00;33.42;;;17.83;;
75435;SDS011;64014;53.432;14.534;2023-02-08T10:52:27;34.13;;;16.15;;
75435;SDS011;64014;53.432;14.534;2023-02-08T10:54:55;44.90;;;22.70;;
75435;SDS011;64014;53.432;14.534;2023-02-08T10:57:23;42.70;;;23.05;;
75435;SDS011;64014;53.432;14.534;2023-02-08T10:59:52;33.95;;;15.20;;
75435;SDS011;64014;53.432;14.534;2023-02-08T11:02:23;32.47;;;14.23;;
75435;SDS011;64014;53.432;14.534;2023-02-08T11:04:57;31.92;;;15.95;;
75435;SDS011;64014;53.432;14.534;2023-02-08T11:07:24;33.85;;;16.42;;
75435;SDS011;64014;53.432;14.534;2023-02-08T11:09:50;29.00;;;13.40;;
75435;SDS011;64014;53.432;14.534;2023-02-08T11:12:20;31.73;;;14.00;;
75435;SDS011;64014;53.432;14.534;2023-02-08T11:14:47;31.13;;;17.80;;
75435;SDS011;64014;53.432;14.534;2023-02-08T11:17:25;28.42;;;13.82;;
75435;SDS011;64014;53.432;14.534;2023-02-08T11:19:52;30.27;;;16.20;;
75435;SDS011;64014;53.432;14.534;2023-02-08T11:22:19;37.30;;;20.27;;
75435;SDS011;64014;53.432;14.534;2023-02-08T11:24:53;31.92;;;15.85;;
75435;SDS011;64014;53.432;14.534;2023-02-08T11:30:09;35.35;;;16.17;;
75435;SDS011;64014;53.432;14.534;2023-02-08T11:32:40;34.80;;;16.98;;
75435;SDS011;64014;53.432;14.534;2023-02-08T11:37:38;31.70;;;16.55;;
75435;SDS011;64014;53.432;14.534;2023-02-08T11:40:14;30.80;;;14.70;;
75435;SDS011;64014;53.432;14.534;2023-02-08T11:42:41;31.77;;;16.75;;
75435;SDS011;64014;53.432;14.534;2023-02-08T11:45:24;34.35;;;17.77;;
75435;SDS011;64014;53.432;14.534;2023-02-08T11:47:52;30.98;;;13.98;;
75435;SDS011;64014;53.432;14.534;2023-02-08T11:50:26;34.92;;;18.02;;
75435;SDS011;64014;53.432;14.534;2023-02-08T11:52:56;32.10;;;15.70;;
75435;SDS011;64014;53.432;14.534;2023-02-08T11:55:24;41.35;;;19.52;;
75435;SDS011;64014;53.432;14.534;2023-02-08T12:00:19;84.95;;;40.20;;
75435;SDS011;64014;53.432;14.534;2023-02-08T12:02:48;36.80;;;20.00;;
75435;SDS011;64014;53.432;14.534;2023-02-08T12:05:15;35.95;;;17.70;;
75435;SDS011;64014;53.432;14.534;2023-02-08T12:07:53;35.97;;;17.40;;
75435;SDS011;64014;53.432;14.534;2023-02-08T12:22:11;33.17;;;26.67;;
75435;SDS011;64014;53.432;14.534;2023-02-08T12:24:49;33.60;;;24.73;;
75435;SDS011;64014;53.432;14.534;2023-02-08T12:29:48;33.78;;;24.33;;
75435;SDS011;64014;53.432;14.534;2023-02-08T12:34:51;33.08;;;24.25;;
75435;SDS011;64014;53.432;14.534;2023-02-08T12:43:12;38.17;;;26.13;;
75435;SDS011;64014;53.432;14.534;2023-02-08T12:46:02;36.08;;;24.10;;
75435;SDS011;64014;53.432;14.534;2023-02-08T12:53:55;31.77;;;22.13;;
75435;SDS011;64014;53.432;14.534;2023-02-08T12:56:27;34.55;;;22.73;;
75435;SDS011;64014;53.432;14.534;2023-02-08T12:58:57;29.83;;;19.33;;
75435;SDS011;64014;53.432;14.534;2023-02-08T13:01:25;33.10;;;19.70;;
75435;SDS011;64014;53.432;14.534;2023-02-08T13:06:27;34.22;;;22.52;;
75435;SDS011;64014;53.432;14.534;2023-02-08T13:16:48;31.00;;;21.40;;
75435;SDS011;64014;53.432;14.534;2023-02-08T13:19:33;30.92;;;20.10;;
75435;SDS011;64014;53.432;14.534;2023-02-08T13:22:01;31.30;;;21.13;;
75435;SDS011;64014;53.432;14.534;2023-02-08T13:24:40;31.48;;;20.92;;
75435;SDS011;64014;53.432;14.534;2023-02-08T13:27:08;35.58;;;23.33;;
75435;SDS011;64014;53.432;14.534;2023-02-08T13:29:36;32.58;;;22.13;;
75435;SDS011;64014;53.432;14.534;2023-02-08T13:32:04;32.47;;;20.70;;
75435;SDS011;64014;53.432;14.534;2023-02-08T13:34:33;37.92;;;23.50;;
75435;SDS011;64014;53.432;14.534;2023-02-08T13:37:02;32.53;;;21.00;;
75435;SDS011;64014;53.432;14.534;2023-02-08T13:39:42;32.53;;;20.63;;
75435;SDS011;64014;53.432;14.534;2023-02-08T13:44:55;31.58;;;20.60;;
75435;SDS011;64014;53.432;14.534;2023-02-08T13:47:43;31.65;;;20.35;;
75435;SDS011;64014;53.432;14.534;2023-02-08T13:57:54;34.67;;;21.92;;
75435;SDS011;64014;53.432;14.534;2023-02-08T14:00:22;36.42;;;21.13;;
75435;SDS011;64014;53.432;14.534;2023-02-08T14:02:59;36.85;;;21.98;;
75435;SDS011;64014;53.432;14.534;2023-02-08T14:07:55;35.80;;;23.20;;
75435;SDS011;64014;53.432;14.534;2023-02-08T14:10:25;32.30;;;21.05;;
75435;SDS011;64014;53.432;14.534;2023-02-08T14:13:03;34.08;;;23.00;;
75435;SDS011;64014;53.432;14.534;2023-02-08T14:15:37;33.80;;;22.85;;
75435;SDS011;64014;53.432;14.534;2023-02-08T14:18:04;39.20;;;23.73;;
75435;SDS011;64014;53.432;14.534;2023-02-08T14:20:40;34.60;;;21.42;;
75435;SDS011;64014;53.432;14.534;2023-02-08T14:23:17;37.60;;;20.63;;
75435;SDS011;64014;53.432;14.534;2023-02-08T14:25:45;40.50;;;23.27;;
75435;SDS011;64014;53.432;14.534;2023-02-08T14:28:24;37.50;;;21.58;;
75435;SDS011;64014;53.432;14.534;2023-02-08T14:30:51;38.25;;;20.90;;
75435;SDS011;64014;53.432;14.534;2023-02-08T14:33:20;40.55;;;22.98;;
75435;SDS011;64014;53.432;14.534;2023-02-08T14:35:55;38.38;;;21.05;;
75435;SDS011;64014;53.432;14.534;2023-02-08T14:40:48;39.15;;;22.10;;
75435;SDS011;64014;53.432;14.534;2023-02-08T14:45:45;43.00;;;22.20;;
75435;SDS011;64014;53.432;14.534;2023-02-08T14:48:22;43.53;;;19.35;;
75435;SDS011;64014;53.432;14.534;2023-02-08T14:50:50;40.67;;;21.80;;
75435;SDS011;64014;53.432;14.534;2023-02-08T14:53:24;39.33;;;19.77;;
75435;SDS011;64014;53.432;14.534;2023-02-08T14:55:53;40.70;;;20.60;;
75435;SDS011;64014;53.432;14.534;2023-02-08T14:58:23;43.17;;;20.92;;
75435;SDS011;64014;53.432;14.534;2023-02-08T15:00:50;39.65;;;19.88;;
75435;SDS011;64014;53.432;14.534;2023-02-08T15:03:18;46.22;;;21.13;;
75435;SDS011;64014;53.432;14.534;2023-02-08T15:06:01;40.35;;;19.67;;
75435;SDS011;64014;53.432;14.534;2023-02-08T15:08:28;44.60;;;20.27;;
75435;SDS011;64014;53.432;14.534;2023-02-08T15:10:55;37.08;;;18.67;;
75435;SDS011;64014;53.432;14.534;2023-02-08T15:13:21;42.75;;;18.67;;
75435;SDS011;64014;53.432;14.534;2023-02-08T15:15:52;35.60;;;17.05;;
75435;SDS011;64014;53.432;14.534;2023-02-08T15:18:21;45.80;;;19.13;;
75435;SDS011;64014;53.432;14.534;2023-02-08T15:21:12;40.95;;;19.40;;
75435;SDS011;64014;53.432;14.534;2023-02-08T15:23:40;38.03;;;18.48;;
75435;SDS011;64014;53.432;14.534;2023-02-08T15:26:20;34.78;;;16.75;;
75435;SDS011;64014;53.432;14.534;2023-02-08T15:28:46;39.38;;;19.58;;
75435;SDS011;64014;53.432;14.534;2023-02-08T15:31:16;34.92;;;16.23;;
75435;SDS011;64014;53.432;14.534;2023-02-08T15:33:43;35.17;;;16.58;;
75435;SDS011;64014;53.432;14.534;2023-02-08T15:36:29;36.25;;;16.25;;
75435;SDS011;64014;53.432;14.534;2023-02-08T15:38:56;40.17;;;20.55;;
75435;SDS011;64014;53.432;14.534;2023-02-08T15:41:24;41.20;;;18.67;;
75435;SDS011;64014;53.432;14.534;2023-02-08T15:43:59;40.35;;;19.58;;
75435;SDS011;64014;53.432;14.534;2023-02-08T15:46:26;37.20;;;17.02;;
75435;SDS011;64014;53.432;14.534;2023-02-08T15:48:52;39.13;;;17.92;;
75435;SDS011;64014;53.432;14.534;2023-02-08T15:51:21;34.95;;;16.20;;
75435;SDS011;64014;53.432;14.534;2023-02-08T15:53:49;35.70;;;15.40;;
75435;SDS011;64014;53.432;14.534;2023-02-08T15:56:16;36.50;;;17.35;;
75435;SDS011;64014;53.432;14.534;2023-02-08T15:58:44;41.03;;;18.15;;
75435;SDS011;64014;53.432;14.534;2023-02-08T16:01:15;43.88;;;20.85;;
75435;SDS011;64014;53.432;14.534;2023-02-08T16:03:45;37.25;;;16.40;;
75435;SDS011;64014;53.432;14.534;2023-02-08T16:06:11;70.03;;;32.50;;
75435;SDS011;64014;53.432;14.534;2023-02-08T16:08:38;72.90;;;32.25;;
75435;SDS011;64014;53.432;14.534;2023-02-08T16:11:13;62.63;;;27.77;;
75435;SDS011;64014;53.432;14.534;2023-02-08T16:13:44;38.60;;;17.05;;
75435;SDS011;64014;53.432;14.534;2023-02-08T16:23:36;37.08;;;19.55;;
75435;SDS011;64014;53.432;14.534;2023-02-08T16:26:17;38.33;;;19.45;;
75435;SDS011;64014;53.432;14.534;2023-02-08T16:28:49;38.15;;;18.30;;
75435;SDS011;64014;53.432;14.534;2023-02-08T16:31:17;42.13;;;19.20;;
75435;SDS011;64014;53.432;14.534;2023-02-08T16:33:44;38.30;;;19.67;;
75435;SDS011;64014;53.432;14.534;2023-02-08T16:36:20;40.50;;;18.92;;
75435;SDS011;64014;53.432;14.534;2023-02-08T16:39:07;43.33;;;17.23;;